createdAt,value
2023-05-04T00:01:13.361Z,45.08
2023-05-04T00:03:15.041Z,45.07
2023-05-04T00:05:16.667Z,45.24
2023-05-04T00:07:18.476Z,45.49
2023-05-04T00:09:19.905Z,45.37
2023-05-04T00:11:21.885Z,45.29
2023-05-04T00:13:23.857Z,45.30
2023-05-04T00:15:25.388Z,45.25
2023-05-04T00:17:27.072Z,45.47
2023-05-04T00:19:28.526Z,45.25
2023-05-04T00:21:29.940Z,45.22
2023-05-04T00:23:31.406Z,45.30
2023-05-04T00:25:35.827Z,45.29
2023-05-04T00:27:37.474Z,45.35
2023-05-04T00:29:38.923Z,45.38
2023-05-04T00:31:43.744Z,45.26
2023-05-04T00:33:46.026Z,45.31
2023-05-04T00:35:47.745Z,45.21
2023-05-04T00:37:49.162Z,45.36
2023-05-04T00:39:50.976Z,45.48
2023-05-04T00:41:52.904Z,45.58
2023-05-04T00:43:54.394Z,45.59
2023-05-04T00:45:56.134Z,45.71
2023-05-04T00:47:58.990Z,45.18
2023-05-04T00:50:00.526Z,45.27
2023-05-04T00:52:03.542Z,45.47
2023-05-04T00:54:05.248Z,45.82
2023-05-04T00:56:07.683Z,45.78
2023-05-04T00:58:09.309Z,45.86
2023-05-04T01:00:13.212Z,46.01
2023-05-04T01:02:14.714Z,46.12
2023-05-04T01:04:16.604Z,46.27
2023-05-04T01:06:47.253Z,46.43
2023-05-04T01:09:02.673Z,46.56
2023-05-04T01:11:11.034Z,46.55
2023-05-04T01:13:15.013Z,46.47
2023-05-04T01:15:17.920Z,46.39
2023-05-04T01:17:19.641Z,46.59
2023-05-04T01:19:21.958Z,46.54
2023-05-04T01:21:23.487Z,46.71
2023-05-04T01:23:26.267Z,46.78
2023-05-04T01:25:33.698Z,46.94
2023-05-04T01:27:42.889Z,46.77
2023-05-04T01:30:11.198Z,47.07
2023-05-04T01:32:15.050Z,46.75
2023-05-04T01:34:17.171Z,46.62
2023-05-04T01:36:20.529Z,46.58
2023-05-04T01:38:22.109Z,46.53
2023-05-04T01:40:23.653Z,46.64
2023-05-04T01:42:25.153Z,46.68
2023-05-04T01:44:28.653Z,46.95
2023-05-04T01:46:30.637Z,46.83
2023-05-04T01:48:32.238Z,46.88
2023-05-04T01:50:33.654Z,46.95
2023-05-04T01:52:37.226Z,46.77
2023-05-04T01:54:39.957Z,46.88
2023-05-04T01:56:42.087Z,47.08
2023-05-04T01:58:43.534Z,47.07
2023-05-04T02:00:46.249Z,47.14
2023-05-04T02:02:47.980Z,47.03
2023-05-04T02:04:53.086Z,47.20
2023-05-04T02:06:54.856Z,47.27
2023-05-04T02:08:56.576Z,47.36
2023-05-04T02:10:58.197Z,47.27
2023-05-04T02:13:01.084Z,47.39
2023-05-04T02:15:02.835Z,47.39
2023-05-04T02:17:06.819Z,47.41
2023-05-04T02:19:08.298Z,47.55
2023-05-04T02:21:10.127Z,47.48
2023-05-04T02:23:11.685Z,47.61
2023-05-04T02:25:13.132Z,47.75
2023-05-04T02:27:14.661Z,47.67
2023-05-04T02:29:16.328Z,47.65
2023-05-04T02:31:20.087Z,47.66
2023-05-04T02:33:21.772Z,47.74
2023-05-04T02:35:23.235Z,47.68
2023-05-04T02:37:24.774Z,47.81
2023-05-04T02:39:26.324Z,47.68
2023-05-04T02:41:29.220Z,47.81
2023-05-04T02:43:30.757Z,47.73
2023-05-04T02:45:37.830Z,47.87
2023-05-04T02:47:42.348Z,47.68
2023-05-04T02:49:46.408Z,47.52
2023-05-04T02:51:47.838Z,47.59
2023-05-04T02:53:49.322Z,47.40
2023-05-04T02:55:51.029Z,47.63
2023-05-04T02:57:52.634Z,47.69
2023-05-04T02:59:56.671Z,47.90
2023-05-04T03:01:58.486Z,47.71
2023-05-04T03:04:00.151Z,47.73
2023-05-04T03:06:03.507Z,47.77
2023-05-04T03:08:05.123Z,48.02
2023-05-04T03:10:09.201Z,47.99
2023-05-04T03:12:10.763Z,47.98
2023-05-04T03:14:12.320Z,47.93
2023-05-04T03:16:14.161Z,47.97
2023-05-04T03:18:15.740Z,47.97
2023-05-04T03:20:18.068Z,47.70
2023-05-04T03:22:19.607Z,47.69
2023-05-04T03:24:22.077Z,47.77
2023-05-04T03:26:35.927Z,47.90
2023-05-04T03:28:37.701Z,47.91
2023-05-04T03:30:39.430Z,48.03
2023-05-04T03:32:41.133Z,48.02
2023-05-04T03:34:42.741Z,48.20
2023-05-04T03:36:45.052Z,48.09
2023-05-04T03:38:46.713Z,48.17
2023-05-04T03:40:48.482Z,48.20
2023-05-04T03:42:52.336Z,48.16
2023-05-04T03:44:54.011Z,48.35
2023-05-04T03:46:55.617Z,48.31
2023-05-04T03:48:57.704Z,48.30
2023-05-04T03:50:59.576Z,48.12
2023-05-04T03:53:04.071Z,48.34
2023-05-04T03:55:07.108Z,48.32
2023-05-04T03:57:08.836Z,48.36
2023-05-04T03:59:11.549Z,48.35
2023-05-04T04:01:13.253Z,48.44
2023-05-04T04:03:14.833Z,48.41
2023-05-04T04:05:16.769Z,48.54
2023-05-04T04:07:18.722Z,48.33
2023-05-04T04:09:20.293Z,48.19
2023-05-04T04:11:21.832Z,48.25
2023-05-04T04:13:23.992Z,48.39
2023-05-04T04:15:26.698Z,48.34
2023-05-04T04:17:28.327Z,48.30
2023-05-04T04:19:29.889Z,48.38
2023-05-04T04:21:31.537Z,48.42
2023-05-04T04:23:34.588Z,48.43
2023-05-04T04:25:39.065Z,48.45
2023-05-04T04:27:41.383Z,48.47
2023-05-04T04:29:42.935Z,48.49
2023-05-04T04:31:47.310Z,48.52
2023-05-04T04:33:50.446Z,48.57
2023-05-04T04:35:53.110Z,48.49
2023-05-04T04:37:54.898Z,48.55
2023-05-04T04:39:56.424Z,48.63
2023-05-04T04:41:57.979Z,48.52
2023-05-04T04:44:00.351Z,48.61
2023-05-04T04:46:02.242Z,48.69
2023-05-04T04:48:09.135Z,48.74
2023-05-04T04:50:16.480Z,48.62
2023-05-04T04:52:24.810Z,48.69
2023-05-04T04:54:29.268Z,48.73
2023-05-04T04:56:30.739Z,48.65
2023-05-04T04:58:33.931Z,48.71
2023-05-04T05:00:35.994Z,48.68
2023-05-04T05:02:37.743Z,48.64
2023-05-04T05:04:40.533Z,48.65
2023-05-04T05:06:45.215Z,48.72
2023-05-04T05:08:46.987Z,48.75
2023-05-04T05:10:48.502Z,48.71
2023-05-04T05:12:52.963Z,48.79
2023-05-04T05:14:54.917Z,48.78
2023-05-04T05:16:56.408Z,48.81
2023-05-04T05:19:00.238Z,48.77
2023-05-04T05:21:01.936Z,48.42
2023-05-04T05:23:03.447Z,48.52
2023-05-04T05:25:06.438Z,48.48
2023-05-04T05:27:08.275Z,48.68
2023-05-04T05:29:09.738Z,48.59
2023-05-04T05:31:11.581Z,48.72
2023-05-04T05:33:13.820Z,48.77
2023-05-04T05:35:15.357Z,48.74
2023-05-04T05:37:17.101Z,48.75
2023-05-04T05:39:18.773Z,48.57
2023-05-04T05:41:21.199Z,48.61
2023-05-04T05:43:22.793Z,48.56
2023-05-04T05:45:24.500Z,48.39
2023-05-04T05:47:25.980Z,48.48
2023-05-04T05:49:27.522Z,48.40
2023-05-04T05:51:29.526Z,48.34
2023-05-04T05:53:31.031Z,48.57
2023-05-04T05:55:32.606Z,48.41
2023-05-04T05:57:34.168Z,48.43
2023-05-04T05:59:35.702Z,48.36
2023-05-04T06:01:37.194Z,48.30
2023-05-04T06:03:38.940Z,48.08
2023-05-04T06:05:40.605Z,48.32
2023-05-04T06:07:42.195Z,48.29
2023-05-04T06:09:43.770Z,48.19
2023-05-04T06:11:45.638Z,48.04
2023-05-04T06:13:47.254Z,48.01
2023-05-04T06:15:52.769Z,48.03
2023-05-04T06:17:54.349Z,47.71
2023-05-04T06:19:55.990Z,47.80
2023-05-04T06:21:57.887Z,47.40
2023-05-04T06:23:59.421Z,47.52
2023-05-04T06:26:01.120Z,47.20
2023-05-04T06:28:03.827Z,47.33
2023-05-04T06:30:06.705Z,47.24
2023-05-04T06:32:09.941Z,47.24
2023-05-04T06:34:17.181Z,46.95
2023-05-04T06:36:20.163Z,46.55
2023-05-04T06:38:22.161Z,46.23
2023-05-04T06:40:26.840Z,46.46
2023-05-04T06:42:38.564Z,46.11
2023-05-04T06:44:40.034Z,45.61
2023-05-04T06:46:41.496Z,45.51
2023-05-04T06:48:43.103Z,45.45
2023-05-04T06:50:48.348Z,45.25
2023-05-04T06:52:49.973Z,45.36
2023-05-04T06:54:51.722Z,45.22
2023-05-04T06:56:53.531Z,45.51
2023-05-04T06:58:55.189Z,45.34
2023-05-04T07:00:56.771Z,45.28
2023-05-04T07:02:58.514Z,45.23
2023-05-04T07:05:00.743Z,44.88
2023-05-04T07:07:02.309Z,44.80
2023-05-04T07:09:04.127Z,44.62
2023-05-04T07:11:05.789Z,44.35
2023-05-04T07:13:08.097Z,44.30
2023-05-04T07:15:10.521Z,44.18
2023-05-04T07:17:12.302Z,43.78
2023-05-04T07:19:14.445Z,44.13
2023-05-04T07:21:27.831Z,44.05
2023-05-04T07:23:33.463Z,43.68
2023-05-04T07:25:35.227Z,43.32
2023-05-04T07:27:36.798Z,43.29
2023-05-04T07:29:38.265Z,43.01
2023-05-04T07:31:41.418Z,43.04
2023-05-04T07:33:43.478Z,43.00
2023-05-04T07:35:45.115Z,42.84
2023-05-04T07:37:46.716Z,42.63
2023-05-04T07:39:48.370Z,42.95
2023-05-04T07:41:53.772Z,42.54
2023-05-04T07:43:55.227Z,42.73
2023-05-04T07:45:56.869Z,42.62
2023-05-04T07:47:58.481Z,42.48
2023-05-04T07:49:59.947Z,42.74
2023-05-04T07:52:01.721Z,42.41
2023-05-04T07:54:03.360Z,42.55
2023-05-04T07:56:12.764Z,42.67
2023-05-04T07:58:15.436Z,42.71
2023-05-04T08:00:17.702Z,42.68
2023-05-04T08:02:19.677Z,42.72
2023-05-04T08:04:21.296Z,42.55
2023-05-04T08:06:22.750Z,42.55
2023-05-04T08:08:24.895Z,42.45
2023-05-04T08:10:27.403Z,42.60
2023-05-04T08:12:29.087Z,42.41
2023-05-04T08:14:30.778Z,42.52
2023-05-04T08:16:32.690Z,42.64
2023-05-04T08:18:34.329Z,42.70
2023-05-04T08:20:35.983Z,42.20
2023-05-04T08:22:38.600Z,42.60
2023-05-04T08:24:40.107Z,42.35
2023-05-04T08:26:43.744Z,42.13
2023-05-04T08:28:47.100Z,41.61
2023-05-04T08:30:49.230Z,41.49
2023-05-04T08:32:54.980Z,41.58
2023-05-04T08:34:56.523Z,41.36
2023-05-04T08:36:58.205Z,40.82
2023-05-04T08:39:02.027Z,41.03
2023-05-04T08:41:04.655Z,41.04
2023-05-04T08:43:06.480Z,41.17
2023-05-04T08:45:08.532Z,40.94
2023-05-04T08:47:10.227Z,40.96
2023-05-04T08:49:11.797Z,41.37
2023-05-04T08:51:14.513Z,41.37
2023-05-04T08:53:19.068Z,41.21
2023-05-04T08:55:20.979Z,40.75
2023-05-04T08:57:26.298Z,40.79
2023-05-04T08:59:29.244Z,41.18
2023-05-04T09:01:32.659Z,41.02
2023-05-04T09:03:34.928Z,40.47
2023-05-04T09:05:40.759Z,40.75
2023-05-04T09:07:42.464Z,40.31
2023-05-04T09:09:44.613Z,40.57
2023-05-04T09:11:46.702Z,40.06
2023-05-04T09:13:48.255Z,39.92
2023-05-04T09:15:56.033Z,40.28
2023-05-04T09:18:02.092Z,40.32
2023-05-04T09:20:04.757Z,40.16
2023-05-04T09:22:17.161Z,39.76
2023-05-04T09:24:29.352Z,39.21
2023-05-04T09:26:32.885Z,39.19
2023-05-04T09:28:36.764Z,39.24
2023-05-04T09:30:38.398Z,38.83
2023-05-04T09:32:47.200Z,38.00
2023-05-04T09:34:53.012Z,38.74
2023-05-04T09:36:59.317Z,38.08
2023-05-04T09:39:11.499Z,37.91
2023-05-04T09:41:13.267Z,37.80
2023-05-04T09:43:15.356Z,38.05
2023-05-04T09:45:16.860Z,38.08
2023-05-04T09:47:18.576Z,37.73
2023-05-04T09:49:30.324Z,37.42
2023-05-04T09:51:32.032Z,37.65
2023-05-04T09:53:38.350Z,37.27
2023-05-04T09:55:45.163Z,36.80
2023-05-04T09:57:48.577Z,36.67
2023-05-04T09:59:52.469Z,36.77
2023-05-04T10:01:54.211Z,36.51
2023-05-04T10:03:56.217Z,36.25
2023-05-04T10:06:04.205Z,35.69
2023-05-04T10:08:06.635Z,35.90
2023-05-04T10:10:09.626Z,35.96
2023-05-04T10:12:12.032Z,36.29
2023-05-04T10:14:13.969Z,36.41
2023-05-04T10:16:31.784Z,35.66
2023-05-04T10:18:50.698Z,35.67
2023-05-04T10:21:28.376Z,34.94
2023-05-04T10:24:00.174Z,35.09
2023-05-04T10:26:25.818Z,35.29
2023-05-04T10:28:43.176Z,35.27
2023-05-04T10:30:45.219Z,35.55
2023-05-04T10:32:55.725Z,35.19
2023-05-04T10:35:08.330Z,35.19
2023-05-04T10:37:17.236Z,35.26
2023-05-04T10:39:22.622Z,35.07
2023-05-04T10:41:24.382Z,34.80
2023-05-04T10:43:26.827Z,34.64
2023-05-04T10:45:38.522Z,34.23
2023-05-04T10:47:41.552Z,34.27
2023-05-04T10:49:43.147Z,34.49
2023-05-04T10:51:49.449Z,34.39
2023-05-04T10:53:52.115Z,34.57
2023-05-04T10:55:54.405Z,34.45
2023-05-04T10:57:57.917Z,34.33
2023-05-04T10:59:59.782Z,34.31
2023-05-04T11:02:03.230Z,34.07
2023-05-04T11:04:04.999Z,33.77
2023-05-04T11:06:27.530Z,33.06
2023-05-04T11:08:30.489Z,33.90
2023-05-04T11:10:32.188Z,33.39
2023-05-04T11:12:34.442Z,33.40
2023-05-04T11:14:42.787Z,33.30
2023-05-04T11:16:44.958Z,33.15
2023-05-04T11:18:46.717Z,33.25
2023-05-04T11:20:48.165Z,33.18
2023-05-04T11:22:51.026Z,33.09
2023-05-04T11:24:54.254Z,32.65
2023-05-04T11:26:57.162Z,32.92
2023-05-04T11:28:58.710Z,32.47
2023-05-04T11:31:17.443Z,32.15
2023-05-04T11:33:28.181Z,32.65
2023-05-04T11:35:31.886Z,32.47
2023-05-04T11:37:41.354Z,32.04
2023-05-04T11:39:43.321Z,32.36
2023-05-04T11:41:44.860Z,32.47
2023-05-04T11:43:47.208Z,32.20
2023-05-04T11:45:49.260Z,32.54
2023-05-04T11:47:52.341Z,32.40
2023-05-04T11:49:55.690Z,32.39
2023-05-04T11:52:10.314Z,32.03
2023-05-04T11:54:20.141Z,32.03
2023-05-04T11:56:21.953Z,32.10
2023-05-04T11:58:25.685Z,32.53
2023-05-04T12:00:41.929Z,32.43
2023-05-04T12:02:43.626Z,32.36
2023-05-04T12:04:45.471Z,32.52
2023-05-04T12:06:48.980Z,32.44
2023-05-04T12:08:50.645Z,32.31
2023-05-04T12:11:22.183Z,32.42
2023-05-04T12:13:23.798Z,32.34
2023-05-04T12:15:32.985Z,31.83
2023-05-04T12:17:43.902Z,31.86
2023-05-04T12:19:56.652Z,32.11
2023-05-04T12:21:59.051Z,31.91
2023-05-04T12:24:03.353Z,32.03
2023-05-04T12:26:06.100Z,31.88
2023-05-04T12:28:08.023Z,32.27
2023-05-04T12:30:10.980Z,31.85
2023-05-04T12:32:12.718Z,32.19
2023-05-04T12:34:14.223Z,31.79
2023-05-04T12:36:16.233Z,31.70
2023-05-04T12:38:17.998Z,31.63
2023-05-04T12:40:28.359Z,31.57
2023-05-04T12:42:30.549Z,31.69
2023-05-04T12:44:32.377Z,31.88
2023-05-04T12:46:34.016Z,31.80
2023-05-04T12:48:35.634Z,32.06
2023-05-04T12:50:37.501Z,31.73
2023-05-04T12:52:40.929Z,31.96
2023-05-04T12:54:42.522Z,31.92
2023-05-04T12:56:44.013Z,31.77
2023-05-04T12:58:48.467Z,31.81
2023-05-04T13:00:50.226Z,31.92
2023-05-04T13:02:51.950Z,31.58
2023-05-04T13:04:53.720Z,31.53
2023-05-04T13:06:55.249Z,31.85
2023-05-04T13:08:57.708Z,31.30
2023-05-04T13:10:59.238Z,31.51
2023-05-04T13:13:01.006Z,31.28
2023-05-04T13:15:02.473Z,31.19
2023-05-04T13:17:06.876Z,31.28
2023-05-04T13:19:11.206Z,31.24
2023-05-04T13:21:13.022Z,30.82
2023-05-04T13:23:15.178Z,30.95
2023-05-04T13:25:17.366Z,31.12
2023-05-04T13:27:18.844Z,30.76
2023-05-04T13:29:22.385Z,30.89
2023-05-04T13:31:24.372Z,30.71
2023-05-04T13:33:30.200Z,31.08
2023-05-04T13:35:32.202Z,31.08
2023-05-04T13:37:33.910Z,31.13
2023-05-04T13:39:41.934Z,30.88
2023-05-04T13:41:43.395Z,30.31
2023-05-04T13:43:44.936Z,30.38
2023-05-04T13:45:46.503Z,30.21
2023-05-04T13:47:50.494Z,30.56
2023-05-04T13:49:52.237Z,30.89
2023-05-04T13:51:56.597Z,30.00
2023-05-04T13:53:59.507Z,30.31
2023-05-04T13:56:02.745Z,29.96
2023-05-04T13:58:04.591Z,29.79
2023-05-04T14:00:08.405Z,29.92
2023-05-04T14:02:12.989Z,30.07
2023-05-04T14:04:14.693Z,30.29
2023-05-04T14:06:16.845Z,30.14
2023-05-04T14:08:18.445Z,30.49
2023-05-04T14:10:23.061Z,30.54
2023-05-04T14:12:24.738Z,30.43
2023-05-04T14:14:26.275Z,30.46
2023-05-04T14:16:28.098Z,30.29
2023-05-04T14:18:32.101Z,30.47
2023-05-04T14:20:33.726Z,30.49
2023-05-04T14:22:37.911Z,30.61
2023-05-04T14:24:39.721Z,30.24
2023-05-04T14:26:41.302Z,30.60
2023-05-04T14:28:42.804Z,30.37
2023-05-04T14:30:44.386Z,30.44
2023-05-04T14:32:46.274Z,29.83
2023-05-04T14:34:47.842Z,29.45
2023-05-04T14:36:49.894Z,29.51
2023-05-04T14:38:52.610Z,29.56
2023-05-04T14:40:55.379Z,29.20
2023-05-04T14:42:59.640Z,29.31
2023-05-04T14:45:01.384Z,29.04
2023-05-04T14:47:04.812Z,29.40
2023-05-04T14:49:08.309Z,29.14
2023-05-04T14:51:12.486Z,28.61
2023-05-04T14:53:14.431Z,29.08
2023-05-04T14:55:15.945Z,29.42
2023-05-04T14:57:18.258Z,29.29
2023-05-04T14:59:19.872Z,29.01
2023-05-04T15:01:21.404Z,29.26
2023-05-04T15:03:23.224Z,29.30
2023-05-04T15:05:24.747Z,29.22
2023-05-04T15:07:27.432Z,29.26
2023-05-04T15:09:29.017Z,29.01
2023-05-04T15:11:30.913Z,28.62
2023-05-04T15:13:44.593Z,28.90
2023-05-04T15:16:13.241Z,28.33
2023-05-04T15:18:20.948Z,28.64
2023-05-04T15:20:25.218Z,28.54
2023-05-04T15:22:28.281Z,28.26
2023-05-04T15:24:30.060Z,28.38
2023-05-04T15:26:33.566Z,28.54
2023-05-04T15:28:35.031Z,28.46
2023-05-04T15:30:45.297Z,28.29
2023-05-04T15:32:47.369Z,27.89
2023-05-04T15:35:01.170Z,27.95
2023-05-04T15:37:06.568Z,28.44
2023-05-04T15:39:08.653Z,28.43
2023-05-04T15:41:10.553Z,28.01
2023-05-04T15:43:12.378Z,28.63
2023-05-04T15:45:13.901Z,28.73
2023-05-04T15:47:15.949Z,28.75
2023-05-04T15:49:17.639Z,28.44
2023-05-04T15:51:19.300Z,28.62
2023-05-04T15:53:21.225Z,28.88
2023-05-04T15:55:26.195Z,28.81
2023-05-04T15:57:28.132Z,29.05
2023-05-04T15:59:29.606Z,29.22
2023-05-04T16:01:32.328Z,29.04
2023-05-04T16:03:35.152Z,29.40
2023-05-04T16:05:37.091Z,29.55
2023-05-04T16:07:38.682Z,29.35
2023-05-04T16:09:40.597Z,29.80
2023-05-04T16:11:42.590Z,29.33
2023-05-04T16:13:44.217Z,29.93
2023-05-04T16:15:51.030Z,29.73
2023-05-04T16:17:52.708Z,29.78
2023-05-04T16:19:54.385Z,29.71
2023-05-04T16:21:55.837Z,29.65
2023-05-04T16:23:57.824Z,29.92
2023-05-04T16:25:59.517Z,29.70
2023-05-04T16:28:01.576Z,29.58
2023-05-04T16:30:03.226Z,29.94
2023-05-04T16:32:05.063Z,30.18
2023-05-04T16:34:06.564Z,30.61
2023-05-04T16:36:09.804Z,30.69
2023-05-04T16:38:15.855Z,30.40
2023-05-04T16:40:17.845Z,30.97
2023-05-04T16:42:21.490Z,30.76
2023-05-04T16:44:23.893Z,30.88
2023-05-04T16:46:25.553Z,30.83
2023-05-04T16:48:27.190Z,30.86
2023-05-04T16:50:28.997Z,30.36
2023-05-04T16:52:30.456Z,30.92
2023-05-04T16:54:32.094Z,30.87
2023-05-04T16:56:36.565Z,30.75
2023-05-04T16:58:38.310Z,31.29
2023-05-04T17:00:43.005Z,31.49
2023-05-04T17:02:45.435Z,31.55
2023-05-04T17:04:47.181Z,31.63
2023-05-04T17:06:48.792Z,31.54
2023-05-04T17:08:50.342Z,31.95
2023-05-04T17:10:51.892Z,31.80
2023-05-04T17:12:54.764Z,31.71
2023-05-04T17:14:56.904Z,32.02
2023-05-04T17:16:58.356Z,31.84
2023-05-04T17:18:59.926Z,31.64
2023-05-04T17:21:01.464Z,31.93
2023-05-04T17:23:02.990Z,32.32
2023-05-04T17:25:04.793Z,31.82
2023-05-04T17:27:08.713Z,32.06
2023-05-04T17:29:10.478Z,31.88
2023-05-04T17:31:15.422Z,31.93
2023-05-04T17:33:17.139Z,32.29
2023-05-04T17:35:25.222Z,32.10
2023-05-04T17:37:29.689Z,32.08
2023-05-04T17:39:31.714Z,32.55
2023-05-04T17:41:35.909Z,32.39
2023-05-04T17:43:37.910Z,32.37
2023-05-04T17:45:39.408Z,32.66
2023-05-04T17:47:40.893Z,32.74
2023-05-04T17:49:42.478Z,32.72
2023-05-04T17:51:49.526Z,32.28
2023-05-04T17:53:51.076Z,32.70
2023-05-04T17:55:52.504Z,32.87
2023-05-04T17:57:54.331Z,32.93
2023-05-04T17:59:57.681Z,32.86
2023-05-04T18:01:59.301Z,32.46
2023-05-04T18:04:04.040Z,32.64
2023-05-04T18:06:06.240Z,32.89
2023-05-04T18:08:07.889Z,32.59
2023-05-04T18:10:09.788Z,32.79
2023-05-04T18:12:11.351Z,32.93
2023-05-04T18:14:13.140Z,32.86
2023-05-04T18:16:14.772Z,32.60
2023-05-04T18:18:16.645Z,32.67
2023-05-04T18:20:18.482Z,33.07
2023-05-04T18:22:20.052Z,33.20
2023-05-04T18:24:21.789Z,33.03
2023-05-04T18:26:23.298Z,33.27
2023-05-04T18:28:24.891Z,33.10
2023-05-04T18:30:26.635Z,33.28
2023-05-04T18:32:28.235Z,33.06
2023-05-04T18:34:29.719Z,33.29
2023-05-04T18:36:32.536Z,33.21
2023-05-04T18:38:37.686Z,33.02
2023-05-04T18:40:39.217Z,33.26
2023-05-04T18:42:40.761Z,32.98
2023-05-04T18:44:42.445Z,33.01
2023-05-04T18:46:43.927Z,33.37
2023-05-04T18:48:45.772Z,33.40
2023-05-04T18:50:53.959Z,33.12
2023-05-04T18:52:55.603Z,33.44
2023-05-04T18:54:57.378Z,33.37
2023-05-04T18:56:59.262Z,33.30
2023-05-04T18:59:00.847Z,33.21
2023-05-04T19:01:02.900Z,33.42
2023-05-04T19:03:04.738Z,33.23
2023-05-04T19:05:06.356Z,33.26
2023-05-04T19:07:09.771Z,33.30
2023-05-04T19:09:14.439Z,33.34
2023-05-04T19:11:16.070Z,33.47
2023-05-04T19:13:17.804Z,33.77
2023-05-04T19:15:21.303Z,33.90
2023-05-04T19:17:23.041Z,33.85
2023-05-04T19:19:25.934Z,33.94
2023-05-04T19:21:28.335Z,34.12
2023-05-04T19:23:29.850Z,34.02
2023-05-04T19:25:35.055Z,34.24
2023-05-04T19:27:36.819Z,34.31
2023-05-04T19:29:41.183Z,34.32
2023-05-04T19:31:42.905Z,34.45
2023-05-04T19:33:48.811Z,34.47
2023-05-04T19:35:51.059Z,34.57
2023-05-04T19:37:52.658Z,34.66
2023-05-04T19:39:55.512Z,34.66
2023-05-04T19:41:56.923Z,34.84
2023-05-04T19:43:58.500Z,34.68
2023-05-04T19:46:02.346Z,34.79
2023-05-04T19:48:04.730Z,35.07
2023-05-04T19:50:10.880Z,34.92
2023-05-04T19:52:12.505Z,34.98
2023-05-04T19:54:14.530Z,35.07
2023-05-04T19:56:15.934Z,35.33
2023-05-04T19:58:17.379Z,35.03
2023-05-04T20:00:19.591Z,35.04
2023-05-04T20:02:21.567Z,34.96
2023-05-04T20:04:23.156Z,35.31
2023-05-04T20:06:24.792Z,35.21
2023-05-04T20:08:26.914Z,35.35
2023-05-04T20:10:28.434Z,35.38
2023-05-04T20:12:29.995Z,35.29
2023-05-04T20:14:31.655Z,35.51
2023-05-04T20:16:33.675Z,35.64
2023-05-04T20:18:35.176Z,35.64
2023-05-04T20:20:36.899Z,35.61
2023-05-04T20:22:38.436Z,35.54
2023-05-04T20:24:40.822Z,35.63
2023-05-04T20:26:42.431Z,35.60
2023-05-04T20:28:43.964Z,35.78
2023-05-04T20:30:48.215Z,35.54
2023-05-04T20:32:49.811Z,35.85
2023-05-04T20:34:51.317Z,35.86
2023-05-04T20:36:52.991Z,35.83
2023-05-04T20:38:55.364Z,35.90
2023-05-04T20:40:57.205Z,35.94
2023-05-04T20:43:00.254Z,35.89
2023-05-04T20:45:01.824Z,36.09
2023-05-04T20:47:07.272Z,36.01
2023-05-04T20:49:09.171Z,35.98
2023-05-04T20:51:14.714Z,35.91
2023-05-04T20:53:17.066Z,36.33
2023-05-04T20:55:18.696Z,36.31
2023-05-04T20:57:20.289Z,36.43
2023-05-04T20:59:21.960Z,36.45
2023-05-04T21:01:23.527Z,36.62
2023-05-04T21:03:25.130Z,36.37
2023-05-04T21:05:26.871Z,36.45
2023-05-04T21:07:28.368Z,36.42
2023-05-04T21:09:30.006Z,36.39
2023-05-04T21:11:31.430Z,36.78
2023-05-04T21:13:32.999Z,36.60
2023-05-04T21:15:34.484Z,36.78
2023-05-04T21:17:36.099Z,37.08
2023-05-04T21:19:37.892Z,36.82
2023-05-04T21:21:41.522Z,36.88
2023-05-04T21:23:43.156Z,36.86
2023-05-04T21:25:44.658Z,37.08
2023-05-04T21:27:46.309Z,37.10
2023-05-04T21:29:47.904Z,37.00
2023-05-04T21:31:49.499Z,37.16
2023-05-04T21:33:51.196Z,37.23
2023-05-04T21:35:53.151Z,37.37
2023-05-04T21:37:54.918Z,37.43
2023-05-04T21:39:56.582Z,36.98
2023-05-04T21:41:58.306Z,37.75
2023-05-04T21:43:59.861Z,37.50
2023-05-04T21:46:01.373Z,37.59
2023-05-04T21:48:03.823Z,37.67
2023-05-04T21:50:06.149Z,37.65
2023-05-04T21:52:10.726Z,37.60
2023-05-04T21:54:12.246Z,37.83
2023-05-04T21:56:14.282Z,37.85
2023-05-04T21:58:17.165Z,37.71
2023-05-04T22:00:19.072Z,37.88
2023-05-04T22:02:20.624Z,37.88
2023-05-04T22:04:22.317Z,37.75
2023-05-04T22:06:24.529Z,37.78
2023-05-04T22:08:27.396Z,37.68
2023-05-04T22:10:29.118Z,38.01
2023-05-04T22:12:30.726Z,38.19
2023-05-04T22:14:32.373Z,37.92
2023-05-04T22:16:34.018Z,38.23
2023-05-04T22:18:35.541Z,38.33
2023-05-04T22:20:37.895Z,38.26
2023-05-04T22:22:39.369Z,37.96
2023-05-04T22:24:41.042Z,38.17
2023-05-04T22:26:42.792Z,38.32
2023-05-04T22:28:44.325Z,38.44
2023-05-04T22:30:45.939Z,38.38
2023-05-04T22:32:47.931Z,38.35
2023-05-04T22:34:49.522Z,38.41
2023-05-04T22:36:51.035Z,38.92
2023-05-04T22:38:52.595Z,38.84
2023-05-04T22:40:54.214Z,38.79
2023-05-04T22:42:55.732Z,38.85
2023-05-04T22:44:57.511Z,38.96
2023-05-04T22:46:59.021Z,38.94
2023-05-04T22:49:00.563Z,39.09
2023-05-04T22:51:02.016Z,39.25
2023-05-04T22:53:03.944Z,38.88
2023-05-04T22:55:07.788Z,38.92
2023-05-04T22:57:09.824Z,39.27
2023-05-04T22:59:11.336Z,39.02
2023-05-04T23:01:13.014Z,39.34
2023-05-04T23:03:14.768Z,39.51
2023-05-04T23:05:16.449Z,39.28
2023-05-04T23:07:17.893Z,39.49
2023-05-04T23:09:19.345Z,39.41
2023-05-04T23:11:23.861Z,39.53
2023-05-04T23:13:25.383Z,39.42
2023-05-04T23:15:27.077Z,39.43
2023-05-04T23:17:29.026Z,39.41
2023-05-04T23:19:31.924Z,39.78
2023-05-04T23:21:33.500Z,39.82
2023-05-04T23:23:35.405Z,39.96
2023-05-04T23:25:36.906Z,39.80
2023-05-04T23:27:40.992Z,39.80
2023-05-04T23:29:42.512Z,39.68
2023-05-04T23:31:44.179Z,39.87
2023-05-04T23:33:45.906Z,39.53
2023-05-04T23:35:47.368Z,39.62
2023-05-04T23:37:48.896Z,39.81
2023-05-04T23:39:50.655Z,39.90
2023-05-04T23:41:52.154Z,39.93
2023-05-04T23:43:53.733Z,39.83
2023-05-04T23:46:08.068Z,40.01
2023-05-04T23:48:09.915Z,39.68
2023-05-04T23:50:11.741Z,39.87
2023-05-04T23:52:13.288Z,39.52
2023-05-04T23:54:15.165Z,39.73
2023-05-04T23:56:17.416Z,39.61
2023-05-04T23:58:18.844Z,39.87
